createdAt,value
2023-05-06T00:00:28.923Z,18.58
2023-05-06T00:02:55.475Z,19.70
2023-05-06T00:05:22.046Z,21.05
2023-05-06T00:07:48.501Z,19.48
2023-05-06T00:10:15.749Z,18.83
2023-05-06T00:12:42.189Z,21.00
2023-05-06T00:15:08.939Z,21.85
2023-05-06T00:17:35.672Z,21.92
2023-05-06T00:20:02.514Z,22.33
2023-05-06T00:22:28.930Z,24.15
2023-05-06T00:24:55.323Z,25.10
2023-05-06T00:27:21.721Z,22.83
2023-05-06T00:29:48.078Z,22.33
2023-05-06T00:32:14.529Z,22.80
2023-05-06T00:34:40.969Z,21.67
2023-05-06T00:37:07.335Z,22.58
2023-05-06T00:39:34.436Z,22.52
2023-05-06T00:42:04.069Z,22.42
2023-05-06T00:44:31.716Z,23.17
2023-05-06T00:46:59.144Z,24.73
2023-05-06T00:49:25.946Z,23.10
2023-05-06T00:51:53.803Z,22.83
2023-05-06T00:54:20.367Z,23.40
2023-05-06T00:56:46.944Z,21.90
2023-05-06T00:59:13.355Z,23.95
2023-05-06T01:01:40.449Z,22.50
2023-05-06T01:04:08.034Z,27.80
2023-05-06T01:07:11.616Z,24.55
2023-05-06T01:09:47.501Z,24.73
2023-05-06T01:12:31.148Z,25.08
2023-05-06T01:15:21.785Z,23.33
2023-05-06T01:17:51.187Z,27.45
2023-05-06T01:20:18.111Z,26.98
2023-05-06T01:22:44.789Z,29.98
2023-05-06T01:25:19.216Z,22.90
2023-05-06T01:27:45.684Z,27.00
2023-05-06T01:30:13.394Z,36.65
2023-05-06T01:32:53.607Z,28.13
2023-05-06T01:35:35.156Z,26.05
2023-05-06T01:38:13.328Z,37.70
2023-05-06T01:40:41.191Z,29.17
2023-05-06T01:43:07.890Z,22.25
2023-05-06T01:45:35.774Z,23.30
2023-05-06T01:48:02.357Z,20.23
2023-05-06T01:50:29.848Z,27.45
2023-05-06T01:53:00.140Z,32.55
2023-05-06T01:55:26.960Z,22.83
2023-05-06T01:57:54.443Z,26.70
2023-05-06T02:00:20.947Z,26.85
2023-05-06T02:02:47.468Z,23.75
2023-05-06T02:05:14.011Z,33.17
2023-05-06T02:07:40.413Z,34.28
2023-05-06T02:10:08.490Z,35.58
2023-05-06T02:12:34.939Z,24.27
2023-05-06T02:15:01.415Z,27.30
2023-05-06T02:17:27.931Z,31.92
2023-05-06T02:19:54.343Z,28.40
2023-05-06T02:22:20.750Z,35.30
2023-05-06T02:24:47.156Z,37.22
2023-05-06T02:27:13.605Z,29.92
2023-05-06T02:29:40.016Z,30.63
2023-05-06T02:32:07.013Z,27.10
2023-05-06T02:34:33.767Z,27.50
2023-05-06T02:37:00.195Z,28.75
2023-05-06T02:39:26.588Z,28.27
2023-05-06T02:41:52.987Z,27.00
2023-05-06T02:44:19.369Z,25.88
2023-05-06T02:46:45.773Z,26.65
2023-05-06T02:49:12.158Z,26.23
2023-05-06T02:51:38.590Z,69.28
2023-05-06T02:54:04.996Z,28.60
2023-05-06T02:56:31.416Z,29.67
2023-05-06T02:58:57.865Z,28.27
2023-05-06T03:01:24.360Z,31.00
2023-05-06T03:03:50.825Z,33.90
2023-05-06T03:06:17.268Z,27.30
2023-05-06T03:08:43.652Z,83.60
2023-05-06T03:11:10.018Z,39.72
2023-05-06T03:13:36.456Z,30.23
2023-05-06T03:16:02.932Z,28.13
2023-05-06T03:18:29.344Z,33.22
2023-05-06T03:20:55.778Z,37.95
2023-05-06T03:23:22.226Z,59.95
2023-05-06T03:25:48.747Z,59.60
2023-05-06T03:28:15.222Z,52.63
2023-05-06T03:30:41.600Z,28.13
2023-05-06T03:33:08.126Z,41.00
2023-05-06T03:35:34.585Z,27.52
2023-05-06T03:38:01.081Z,30.27
2023-05-06T03:40:27.508Z,26.85
2023-05-06T03:42:53.996Z,50.63
2023-05-06T03:45:20.399Z,28.08
2023-05-06T03:47:47.018Z,43.30
2023-05-06T03:50:14.583Z,28.17
2023-05-06T03:52:41.029Z,29.30
2023-05-06T03:55:07.907Z,31.15
2023-05-06T03:57:36.915Z,45.83
2023-05-06T04:00:03.617Z,36.38
2023-05-06T04:02:30.230Z,35.80
2023-05-06T04:04:56.841Z,51.00
2023-05-06T04:07:23.237Z,24.67
2023-05-06T04:09:49.597Z,28.20
2023-05-06T04:12:15.987Z,32.72
2023-05-06T04:14:42.382Z,28.05
2023-05-06T04:17:08.764Z,23.23
2023-05-06T04:19:35.139Z,25.63
2023-05-06T04:22:02.130Z,23.30
2023-05-06T04:24:29.340Z,33.50
2023-05-06T04:26:55.769Z,28.05
2023-05-06T04:29:22.166Z,23.80
2023-05-06T04:31:48.643Z,26.20
2023-05-06T04:34:16.891Z,33.45
2023-05-06T04:36:43.402Z,28.70
2023-05-06T04:39:10.475Z,28.30
2023-05-06T04:41:37.661Z,32.65
2023-05-06T04:44:04.718Z,34.40
2023-05-06T04:46:31.084Z,67.85
2023-05-06T04:48:58.312Z,115.95
2023-05-06T04:51:24.793Z,34.83
2023-05-06T04:53:53.301Z,30.00
2023-05-06T04:56:19.685Z,33.45
2023-05-06T04:58:46.119Z,26.52
2023-05-06T05:01:12.633Z,39.35
2023-05-06T05:03:39.093Z,46.25
2023-05-06T05:06:05.725Z,45.20
2023-05-06T05:08:32.134Z,35.90
2023-05-06T05:10:58.544Z,40.03
2023-05-06T05:13:24.951Z,35.35
2023-05-06T05:15:54.595Z,33.50
2023-05-06T05:18:21.145Z,40.85
2023-05-06T05:20:47.537Z,37.15
2023-05-06T05:23:13.954Z,34.78
2023-05-06T05:25:40.507Z,36.67
2023-05-06T05:28:06.922Z,36.88
2023-05-06T05:30:33.293Z,34.65
2023-05-06T05:32:59.771Z,34.05
2023-05-06T05:35:26.304Z,33.67
2023-05-06T05:37:52.697Z,38.60
2023-05-06T05:40:19.167Z,37.15
2023-05-06T05:42:45.526Z,33.33
2023-05-06T05:45:11.933Z,36.15
2023-05-06T05:47:38.371Z,35.80
2023-05-06T05:50:05.429Z,33.03
2023-05-06T05:52:31.884Z,29.10
2023-05-06T05:54:58.305Z,30.27
2023-05-06T05:57:24.743Z,31.33
2023-05-06T05:59:51.169Z,28.48
2023-05-06T06:02:17.684Z,28.00
2023-05-06T06:04:44.230Z,27.75
2023-05-06T06:07:11.021Z,29.95
2023-05-06T06:09:37.506Z,27.08
2023-05-06T06:12:04.047Z,30.38
2023-05-06T06:14:30.764Z,33.08
2023-05-06T06:16:57.274Z,31.63
2023-05-06T06:19:23.667Z,30.60
2023-05-06T06:21:50.279Z,29.10
2023-05-06T06:24:16.674Z,24.40
2023-05-06T06:26:43.187Z,29.58
2023-05-06T06:29:09.561Z,31.30
2023-05-06T06:31:36.625Z,28.90
2023-05-06T06:34:06.443Z,31.13
2023-05-06T06:36:33.074Z,28.83
2023-05-06T06:38:59.469Z,27.95
2023-05-06T06:41:27.067Z,28.75
2023-05-06T06:43:53.525Z,27.58
2023-05-06T06:46:20.078Z,24.73
2023-05-06T06:48:46.522Z,25.30
2023-05-06T06:51:12.931Z,23.23
2023-05-06T06:53:39.767Z,22.80
2023-05-06T06:56:10.860Z,22.35
2023-05-06T06:58:37.261Z,21.38
2023-05-06T07:01:03.812Z,20.23
2023-05-06T07:03:30.299Z,21.73
2023-05-06T07:05:56.800Z,19.15
2023-05-06T07:08:23.169Z,21.85
2023-05-06T07:10:49.619Z,21.25
2023-05-06T07:13:16.119Z,21.85
2023-05-06T07:15:42.763Z,19.67
2023-05-06T07:18:09.615Z,23.77
2023-05-06T07:20:36.476Z,23.25
2023-05-06T07:23:03.406Z,21.02
2023-05-06T07:25:31.214Z,19.10
2023-05-06T07:27:57.674Z,23.75
2023-05-06T07:30:24.157Z,20.67
2023-05-06T07:32:50.763Z,23.20
2023-05-06T07:35:17.196Z,17.13
2023-05-06T07:37:45.964Z,17.70
2023-05-06T07:40:12.718Z,13.60
2023-05-06T07:42:42.636Z,12.45
2023-05-06T07:45:09.990Z,14.80
2023-05-06T07:47:36.707Z,14.65
2023-05-06T07:50:04.981Z,14.95
2023-05-06T07:52:31.341Z,14.05
2023-05-06T07:54:57.752Z,13.90
2023-05-06T07:57:24.106Z,14.57
2023-05-06T07:59:51.719Z,12.43
2023-05-06T08:02:18.677Z,12.48
2023-05-06T08:04:45.268Z,11.63
2023-05-06T08:07:11.705Z,13.05
2023-05-06T08:09:38.176Z,12.18
2023-05-06T08:12:04.617Z,12.15
2023-05-06T08:14:31.013Z,14.35
2023-05-06T08:16:57.420Z,14.85
2023-05-06T08:19:23.801Z,12.27
2023-05-06T08:21:50.462Z,14.00
2023-05-06T08:24:17.069Z,12.57
2023-05-06T08:26:43.487Z,11.57
2023-05-06T08:29:09.933Z,10.98
2023-05-06T08:31:36.425Z,12.73
2023-05-06T08:34:03.028Z,9.45
2023-05-06T08:36:29.417Z,10.35
2023-05-06T08:38:55.900Z,8.50
2023-05-06T08:41:22.343Z,9.35
2023-05-06T08:43:50.270Z,9.98
2023-05-06T08:46:17.656Z,9.20
2023-05-06T08:48:44.205Z,9.00
2023-05-06T08:51:13.730Z,8.73
2023-05-06T08:53:41.347Z,9.27
2023-05-06T08:56:08.750Z,9.82
2023-05-06T08:58:37.462Z,10.07
2023-05-06T09:01:04.544Z,10.07
2023-05-06T09:03:31.267Z,9.10
2023-05-06T09:05:58.156Z,8.88
2023-05-06T09:08:24.604Z,9.48
2023-05-06T09:10:50.978Z,8.75
2023-05-06T09:13:19.051Z,8.32
2023-05-06T09:15:49.855Z,9.68
2023-05-06T09:18:16.815Z,11.93
2023-05-06T09:20:47.572Z,10.95
2023-05-06T09:23:15.998Z,11.55
2023-05-06T09:25:46.653Z,9.60
2023-05-06T09:28:14.059Z,9.57
2023-05-06T09:30:41.734Z,8.88
2023-05-06T09:33:08.898Z,8.50
2023-05-06T09:35:40.512Z,9.63
2023-05-06T09:38:07.690Z,9.02
2023-05-06T09:40:37.958Z,8.23
2023-05-06T09:43:04.876Z,8.77
2023-05-06T09:45:31.537Z,7.68
2023-05-06T09:47:58.584Z,8.52
2023-05-06T09:50:25.467Z,8.45
2023-05-06T09:52:51.993Z,8.10
2023-05-06T09:55:23.216Z,8.95
2023-05-06T09:57:50.158Z,7.90
2023-05-06T10:00:17.042Z,8.50
2023-05-06T10:02:44.919Z,7.75
2023-05-06T10:05:13.377Z,8.60
2023-05-06T10:07:43.512Z,8.55
2023-05-06T10:10:12.079Z,9.70
2023-05-06T10:12:39.076Z,11.25
2023-05-06T10:15:06.225Z,10.05
2023-05-06T10:17:34.091Z,8.63
2023-05-06T10:20:01.481Z,9.93
2023-05-06T10:22:56.540Z,8.80
2023-05-06T10:25:30.902Z,8.00
2023-05-06T10:27:57.709Z,7.43
2023-05-06T10:30:25.124Z,7.65
2023-05-06T10:32:52.421Z,6.30
2023-05-06T10:35:36.004Z,7.18
2023-05-06T10:38:04.030Z,6.80
2023-05-06T10:40:31.204Z,7.85
2023-05-06T10:43:30.243Z,6.97
2023-05-06T10:46:05.104Z,6.82
2023-05-06T10:48:32.404Z,7.13
2023-05-06T10:51:13.800Z,5.82
2023-05-06T10:54:06.787Z,6.30
2023-05-06T10:56:35.238Z,8.20
2023-05-06T10:59:06.857Z,7.60
2023-05-06T11:01:34.869Z,5.47
2023-05-06T11:04:05.614Z,6.00
2023-05-06T11:06:34.100Z,6.38
2023-05-06T11:09:01.539Z,5.72
2023-05-06T11:11:47.690Z,5.50
2023-05-06T11:14:15.621Z,5.55
2023-05-06T11:16:49.196Z,4.78
2023-05-06T11:19:23.798Z,4.72
2023-05-06T11:21:51.128Z,3.75
2023-05-06T11:24:31.488Z,4.60
2023-05-06T11:26:59.437Z,5.00
2023-05-06T11:29:26.735Z,4.38
2023-05-06T11:31:54.069Z,3.38
2023-05-06T11:34:23.445Z,3.63
2023-05-06T11:36:52.697Z,3.78
2023-05-06T11:39:19.190Z,3.90
2023-05-06T11:41:45.930Z,3.33
2023-05-06T11:44:24.824Z,4.90
2023-05-06T11:46:51.391Z,3.92
2023-05-06T11:49:17.916Z,4.22
2023-05-06T11:51:44.286Z,3.72
2023-05-06T11:54:10.926Z,3.50
2023-05-06T11:56:48.116Z,3.65
2023-05-06T11:59:14.753Z,3.78
2023-05-06T12:01:42.660Z,4.60
2023-05-06T12:04:09.474Z,3.10
2023-05-06T12:06:36.553Z,4.28
2023-05-06T12:09:05.535Z,4.32
2023-05-06T12:11:33.537Z,2.95
2023-05-06T12:14:01.328Z,3.42
2023-05-06T12:16:27.955Z,2.88
2023-05-06T12:18:54.632Z,3.40
2023-05-06T12:21:24.692Z,3.97
2023-05-06T12:23:52.526Z,2.30
2023-05-06T12:26:22.256Z,2.30
2023-05-06T12:29:07.897Z,2.78
2023-05-06T12:31:35.157Z,3.58
2023-05-06T12:34:01.797Z,2.92
2023-05-06T12:36:28.349Z,2.00
2023-05-06T12:38:59.588Z,2.25
2023-05-06T12:41:39.162Z,3.40
2023-05-06T12:44:34.282Z,3.58
2023-05-06T12:47:02.347Z,3.17
2023-05-06T12:49:47.101Z,3.33
2023-05-06T12:52:13.790Z,4.22
2023-05-06T12:54:40.295Z,2.55
2023-05-06T12:57:06.770Z,2.83
2023-05-06T12:59:33.270Z,3.47
2023-05-06T13:01:59.749Z,2.28
2023-05-06T13:04:26.546Z,2.33
2023-05-06T13:06:53.062Z,2.95
2023-05-06T13:09:19.548Z,3.25
2023-05-06T13:11:46.048Z,2.33
2023-05-06T13:14:12.563Z,1.63
2023-05-06T13:16:39.430Z,3.40
2023-05-06T13:19:05.917Z,2.85
2023-05-06T13:21:32.826Z,4.32
2023-05-06T13:23:59.288Z,3.20
2023-05-06T13:26:25.725Z,2.85
2023-05-06T13:28:52.152Z,4.28
2023-05-06T13:31:18.664Z,2.35
2023-05-06T13:33:45.103Z,3.08
2023-05-06T13:36:11.539Z,2.47
2023-05-06T13:38:38.045Z,3.58
2023-05-06T13:41:05.689Z,2.20
2023-05-06T13:43:32.083Z,3.08
2023-05-06T13:45:58.483Z,3.63
2023-05-06T13:48:24.993Z,3.65
2023-05-06T13:50:51.488Z,2.92
2023-05-06T13:53:18.135Z,3.30
2023-05-06T13:55:44.541Z,2.92
2023-05-06T13:58:11.237Z,2.10
2023-05-06T14:00:38.698Z,2.35
2023-05-06T14:03:05.237Z,2.70
2023-05-06T14:05:32.344Z,3.25
2023-05-06T14:07:58.751Z,3.53
2023-05-06T14:10:25.278Z,4.20
2023-05-06T14:12:51.886Z,3.30
2023-05-06T14:15:18.420Z,3.60
2023-05-06T14:17:44.820Z,2.95
2023-05-06T14:20:11.419Z,3.20
2023-05-06T14:22:40.139Z,3.40
2023-05-06T14:25:07.520Z,4.45
2023-05-06T14:27:34.068Z,3.97
2023-05-06T14:30:01.544Z,3.58
2023-05-06T14:32:27.924Z,2.83
2023-05-06T14:34:54.333Z,4.70
2023-05-06T14:37:20.822Z,2.03
2023-05-06T14:39:47.254Z,5.40
2023-05-06T14:42:13.686Z,4.95
2023-05-06T14:44:40.148Z,3.78
2023-05-06T14:47:06.661Z,2.65
2023-05-06T14:49:33.135Z,5.57
2023-05-06T14:51:59.602Z,3.40
2023-05-06T14:54:26.757Z,3.25
2023-05-06T14:56:53.196Z,2.80
2023-05-06T14:59:19.578Z,4.25
2023-05-06T15:01:46.059Z,4.05
2023-05-06T15:04:12.519Z,2.50
2023-05-06T15:06:38.929Z,2.67
2023-05-06T15:09:05.443Z,3.63
2023-05-06T15:11:32.573Z,2.90
2023-05-06T15:13:58.937Z,3.30
2023-05-06T15:16:25.575Z,3.53
2023-05-06T15:18:51.991Z,5.97
2023-05-06T15:21:18.367Z,4.20
2023-05-06T15:23:47.139Z,2.80
2023-05-06T15:26:13.599Z,3.28
2023-05-06T15:28:39.960Z,2.42
2023-05-06T15:31:06.608Z,4.13
2023-05-06T15:33:33.022Z,2.92
2023-05-06T15:35:59.471Z,4.13
2023-05-06T15:38:25.864Z,3.22
2023-05-06T15:40:52.597Z,3.50
2023-05-06T15:43:23.769Z,3.88
2023-05-06T15:45:50.873Z,2.88
2023-05-06T15:48:17.289Z,2.63
2023-05-06T15:50:43.676Z,3.35
2023-05-06T15:53:10.034Z,3.33
2023-05-06T15:55:45.152Z,3.70
2023-05-06T15:58:13.240Z,3.53
2023-05-06T16:00:39.765Z,4.63
2023-05-06T16:03:09.883Z,4.80
2023-05-06T16:05:38.563Z,2.70
2023-05-06T16:08:05.131Z,5.32
2023-05-06T16:10:31.384Z,3.40
2023-05-06T16:12:57.807Z,4.78
2023-05-06T16:15:24.221Z,2.90
2023-05-06T16:17:50.701Z,5.57
2023-05-06T16:20:17.159Z,5.97
2023-05-06T16:22:49.593Z,4.60
2023-05-06T16:25:16.095Z,5.80
2023-05-06T16:27:42.543Z,4.32
2023-05-06T16:30:09.695Z,3.92
2023-05-06T16:32:36.492Z,5.57
2023-05-06T16:35:03.169Z,4.32
2023-05-06T16:37:29.635Z,3.60
2023-05-06T16:39:56.037Z,4.70
2023-05-06T16:42:22.484Z,6.38
2023-05-06T16:44:48.924Z,5.50
2023-05-06T16:47:15.474Z,5.10
2023-05-06T16:49:41.969Z,7.03
2023-05-06T16:52:08.519Z,4.63
2023-05-06T16:54:34.935Z,6.00
2023-05-06T16:57:01.455Z,6.05
2023-05-06T16:59:27.827Z,7.05
2023-05-06T17:01:54.206Z,4.85
2023-05-06T17:04:22.337Z,5.78
2023-05-06T17:06:48.773Z,4.63
2023-05-06T17:09:16.259Z,4.93
2023-05-06T17:11:42.916Z,6.43
2023-05-06T17:14:12.270Z,4.80
2023-05-06T17:16:38.802Z,6.15
2023-05-06T17:19:05.333Z,5.03
2023-05-06T17:21:32.324Z,5.25
2023-05-06T17:23:59.085Z,5.20
2023-05-06T17:26:25.510Z,5.22
2023-05-06T17:28:52.043Z,8.50
2023-05-06T17:31:18.887Z,5.60
2023-05-06T17:33:45.385Z,7.57
2023-05-06T17:36:16.747Z,6.25
2023-05-06T17:38:43.369Z,6.67
2023-05-06T17:41:10.007Z,5.85
2023-05-06T17:43:36.545Z,6.25
2023-05-06T17:46:03.665Z,8.73
2023-05-06T17:48:30.177Z,6.70
2023-05-06T17:51:00.922Z,6.47
2023-05-06T17:53:27.447Z,6.75
2023-05-06T17:55:53.818Z,7.22
2023-05-06T17:58:21.494Z,7.57
2023-05-06T18:00:47.891Z,7.25
2023-05-06T18:03:14.509Z,7.88
2023-05-06T18:05:40.984Z,7.38
2023-05-06T18:08:09.336Z,6.22
2023-05-06T18:10:35.878Z,7.60
2023-05-06T18:13:02.317Z,6.97
2023-05-06T18:15:28.958Z,7.00
2023-05-06T18:17:55.545Z,7.70
2023-05-06T18:20:21.961Z,6.20
2023-05-06T18:22:48.949Z,7.15
2023-05-06T18:25:15.387Z,8.68
2023-05-06T18:27:41.884Z,7.75
2023-05-06T18:30:08.801Z,6.97
2023-05-06T18:32:35.654Z,7.25
2023-05-06T18:35:02.209Z,6.32
2023-05-06T18:37:29.535Z,7.72
2023-05-06T18:39:55.926Z,8.18
2023-05-06T18:42:22.883Z,6.90
2023-05-06T18:44:50.292Z,7.00
2023-05-06T18:47:18.213Z,7.00
2023-05-06T18:49:44.943Z,5.63
2023-05-06T18:52:14.336Z,5.53
2023-05-06T18:54:41.375Z,5.68
2023-05-06T18:57:07.935Z,7.30
2023-05-06T18:59:34.490Z,6.45
2023-05-06T19:02:02.363Z,7.05
2023-05-06T19:04:30.284Z,6.85
2023-05-06T19:06:56.689Z,6.88
2023-05-06T19:09:23.052Z,5.20
2023-05-06T19:11:49.972Z,8.23
2023-05-06T19:14:16.436Z,6.57
2023-05-06T19:16:43.007Z,6.25
2023-05-06T19:19:09.789Z,9.77
2023-05-06T19:21:38.344Z,5.38
2023-05-06T19:24:05.908Z,7.00
2023-05-06T19:26:32.306Z,6.25
2023-05-06T19:28:58.732Z,8.32
2023-05-06T19:31:25.427Z,8.75
2023-05-06T19:33:51.886Z,7.07
2023-05-06T19:36:18.444Z,7.38
2023-05-06T19:38:44.965Z,7.28
2023-05-06T19:41:11.373Z,7.28
2023-05-06T19:43:42.188Z,6.95
2023-05-06T19:46:09.396Z,6.50
2023-05-06T19:48:36.873Z,6.22
2023-05-06T19:51:03.452Z,6.15
2023-05-06T19:53:29.915Z,9.65
2023-05-06T19:55:57.834Z,6.97
2023-05-06T19:58:24.306Z,8.23
2023-05-06T20:00:50.690Z,9.18
2023-05-06T20:03:17.202Z,7.30
2023-05-06T20:05:43.659Z,7.30
2023-05-06T20:08:11.197Z,9.00
2023-05-06T20:10:38.232Z,12.57
2023-05-06T20:13:04.761Z,10.73
2023-05-06T20:15:31.802Z,10.43
2023-05-06T20:17:58.295Z,11.82
2023-05-06T20:20:31.939Z,13.65
2023-05-06T20:22:58.298Z,16.08
2023-05-06T20:25:24.943Z,16.23
2023-05-06T20:27:51.405Z,18.83
2023-05-06T20:30:17.840Z,18.67
2023-05-06T20:32:45.713Z,17.38
2023-05-06T20:35:12.675Z,16.33
2023-05-06T20:37:39.323Z,16.80
2023-05-06T20:40:07.795Z,14.57
2023-05-06T20:42:34.469Z,16.48
2023-05-06T20:45:00.999Z,14.85
2023-05-06T20:47:27.615Z,18.98
2023-05-06T20:49:54.383Z,17.60
2023-05-06T20:52:21.678Z,17.85
2023-05-06T20:54:48.461Z,18.73
2023-05-06T20:57:16.180Z,18.52
2023-05-06T20:59:42.852Z,17.02
2023-05-06T21:02:09.754Z,17.05
2023-05-06T21:04:36.454Z,16.80
2023-05-06T21:07:02.834Z,16.90
2023-05-06T21:09:29.274Z,18.08
2023-05-06T21:11:56.672Z,19.08
2023-05-06T21:14:24.720Z,18.27
2023-05-06T21:16:51.896Z,20.05
2023-05-06T21:19:18.790Z,17.67
2023-05-06T21:21:45.387Z,17.45
2023-05-06T21:24:12.036Z,17.10
2023-05-06T21:26:39.142Z,19.52
2023-05-06T21:29:05.533Z,20.15
2023-05-06T21:31:32.089Z,18.95
2023-05-06T21:33:58.768Z,18.92
2023-05-06T21:36:25.896Z,18.60
2023-05-06T21:39:18.361Z,18.10
2023-05-06T21:41:44.744Z,18.85
2023-05-06T21:44:11.106Z,18.85
2023-05-06T21:46:37.836Z,18.98
2023-05-06T21:49:04.693Z,22.63
2023-05-06T21:51:32.794Z,18.98
2023-05-06T21:53:59.156Z,19.75
2023-05-06T21:56:25.553Z,20.98
2023-05-06T21:58:53.029Z,20.60
2023-05-06T22:01:19.485Z,22.40
2023-05-06T22:03:46.269Z,21.70
2023-05-06T22:06:12.767Z,20.75
2023-05-06T22:08:39.800Z,21.30
2023-05-06T22:11:06.308Z,21.50
2023-05-06T22:13:32.760Z,22.48
2023-05-06T22:15:59.259Z,22.52
2023-05-06T22:18:27.779Z,23.45
2023-05-06T22:20:56.379Z,24.60
2023-05-06T22:23:23.892Z,22.85
2023-05-06T22:25:52.014Z,25.55
2023-05-06T22:28:18.985Z,21.92
2023-05-06T22:30:45.438Z,23.25
2023-05-06T22:33:11.937Z,24.02
2023-05-06T22:35:38.376Z,24.10
2023-05-06T22:38:04.753Z,23.55
2023-05-06T22:40:31.196Z,23.48
2023-05-06T22:42:57.590Z,24.27
2023-05-06T22:45:24.040Z,25.00
2023-05-06T22:47:50.553Z,26.17
2023-05-06T22:50:16.996Z,23.92
2023-05-06T22:52:43.398Z,22.67
2023-05-06T22:55:10.050Z,25.38
2023-05-06T22:57:36.880Z,24.30
2023-05-06T23:00:03.963Z,24.45
2023-05-06T23:02:30.701Z,24.35
2023-05-06T23:04:57.498Z,24.10
2023-05-06T23:07:23.876Z,24.95
2023-05-06T23:09:50.339Z,24.70
2023-05-06T23:12:16.715Z,28.15
2023-05-06T23:14:43.098Z,25.45
2023-05-06T23:17:09.570Z,25.90
2023-05-06T23:19:36.240Z,25.48
2023-05-06T23:22:02.614Z,28.60
2023-05-06T23:24:29.041Z,26.63
2023-05-06T23:26:55.575Z,28.42
2023-05-06T23:29:21.925Z,25.33
2023-05-06T23:31:48.299Z,26.95
2023-05-06T23:34:14.695Z,27.45
2023-05-06T23:36:41.218Z,26.92
2023-05-06T23:39:08.128Z,28.10
2023-05-06T23:41:34.625Z,29.13
2023-05-06T23:44:00.980Z,25.38
2023-05-06T23:46:27.393Z,30.45
2023-05-06T23:48:53.779Z,31.20
2023-05-06T23:51:20.204Z,28.92
2023-05-06T23:53:46.605Z,30.08
2023-05-06T23:56:13.009Z,26.27
2023-05-06T23:58:39.380Z,28.10
